WetterOnline ( https://www.wetteronline.de )

Wetter aktuell Plauen

Aktuelles Wetter: Schleiz (502m)

6-stündlich | Neueste Meldungen
Ortszeit Temperatur Wetter
Sa, 31.10. 19:00 9.7° C wolkenlos
Sa, 31.10. 13:00 11.4° C bedeckt
Sa, 31.10. 7:00 10.2° C bedeckt
Sa, 31.10. 1:00 10.9° C bedeckt
Fr, 30.10. 19:00 11.3° C leichter Regen
Fr, 30.10. 13:00 11.6° C Sprühregen
Fr, 30.10. 7:00 9.4° C Sprühregen
Fr, 30.10. 1:00 7.3° C leichter Regen
Ortszeit Temperatur Wetter
Sa, 31.10. 21:00 9.2° C bewölkt
Sa, 31.10. 20:50 9.2° C bewölkt
Sa, 31.10. 20:40 9.1° C wolkig
Sa, 31.10. 20:30 9.2° C wolkig
Sa, 31.10. 20:20 9.2° C wolkig
Sa, 31.10. 20:10 9.3° C wolkig
Sa, 31.10. 20:00 9.1° C wolkig
Sa, 31.10. 19:30 9.0° C leicht bewölkt
Sa, 31.10. 19:00 9.7° C wolkenlos
Sa, 31.10. 18:30 9.8° C wolkig
Sa, 31.10. 18:00 10.4° C bewölkt
Ortszeit Relative Feuchte Sichtweite
Sa, 31.10. 19:00 90% 40 km
Sa, 31.10. 13:00 85% 60 km
Sa, 31.10. 7:00 94% >70 km
Sa, 31.10. 1:00 86% >70 km
Fr, 30.10. 19:00 90% 55 km
Fr, 30.10. 13:00 91% 45 km
Fr, 30.10. 7:00 94% 50 km
Fr, 30.10. 1:00 93% 30 km
Ortszeit Relative Feuchte Sichtweite
Sa, 31.10. 21:00 88% 35 km
Sa, 31.10. 20:50 88% -
Sa, 31.10. 20:40 89% -
Sa, 31.10. 20:30 88% 29 km
Sa, 31.10. 20:20 88% -
Sa, 31.10. 20:10 89% -
Sa, 31.10. 20:00 90% 35 km
Sa, 31.10. 19:30 93% 28 km
Sa, 31.10. 19:00 90% 40 km
Sa, 31.10. 18:30 90% 50 km
Sa, 31.10. 18:00 88% 65 km
Ortszeit Niederschlagsmenge Niederschlagsart
Sa, 31.10. 19:00 0.0 l/m2 in 12 Std. -
Sa, 31.10. 13:00 0.0 l/m2 in 6 Std. -
Sa, 31.10. 7:00 0.1 l/m2 in 12 Std. Sprühregen
Sa, 31.10. 1:00 0.1 l/m2 in 6 Std. Regen
Fr, 30.10. 19:00 2 l/m2 in 12 Std. Regen
Fr, 30.10. 13:00 2 l/m2 in 6 Std. Regen
Fr, 30.10. 7:00 5 l/m2 in 12 Std. Regen
Fr, 30.10. 1:00 2 l/m2 in 6 Std. Regen
Ortszeit Niederschlagsmenge Niederschlagsart
Sa, 31.10. 21:00 0.0 l/m2 in 1 Std. -
Sa, 31.10. 20:50 keine Meldung -
Sa, 31.10. 20:40 keine Meldung -
Sa, 31.10. 20:30 0.0 l/m2 in 1 Std. -
Sa, 31.10. 20:20 keine Meldung -
Sa, 31.10. 20:10 keine Meldung -
Sa, 31.10. 20:00 0.0 l/m2 in 1 Std. -
Sa, 31.10. 19:30 0.0 l/m2 in 1 Std. -
Sa, 31.10. 19:00 0.0 l/m2 in 1 Std. -
Sa, 31.10. 18:30 0.0 l/m2 in 1 Std. -
Sa, 31.10. 18:00 0.0 l/m2 in 1 Std. -
Ortszeit Stärke Spitze Richtung
km/h Bft. km/h Grad Sektor
Sa, 31.10. 19:00 9 2 33 210° SW
Sa, 31.10. 13:00 11 2 22 210° SW
Sa, 31.10. 7:00 13 3 22 250° W
Sa, 31.10. 1:00 14 3 40 260° W
Fr, 30.10. 19:00 22 4 36 260° W
Fr, 30.10. 13:00 22 4 43 250° W
Fr, 30.10. 7:00 24 4 41 230° SW
Fr, 30.10. 1:00 13 3 30 220° SW
Ortszeit Stärke Spitze Richtung
km/h Bft. km/h Grad Sektor
Sa, 31.10. 21:00 14 3 25 190° S
Sa, 31.10. 20:50 14 3 - 190° S
Sa, 31.10. 20:40 11 2 - 200° S
Sa, 31.10. 20:30 11 2 25 170° S
Sa, 31.10. 20:20 11 2 - 170° S
Sa, 31.10. 20:10 11 2 - 170° S
Sa, 31.10. 20:00 17 3 30 170° S
Sa, 31.10. 19:30 11 2 22 180° S
Sa, 31.10. 19:00 9 2 22 210° SW
Sa, 31.10. 18:30 11 2 22 180° S
Sa, 31.10. 18:00 13 3 33 190° S
Ortszeit Untergrenze Bedeckung Gattung
total tief tief mittel hoch
Sa, 31.10. 19:00 - 0/8 0/8 - - -
Sa, 31.10. 13:00 360 m 8/8 8/8 - - -
Sa, 31.10. 7:00 330 m 8/8 8/8 - - -
Sa, 31.10. 1:00 780 m 8/8 8/8 - - -
Fr, 30.10. 19:00 510 m 8/8 8/8 - - -
Fr, 30.10. 13:00 570 m 7/8 7/8 - - -
Fr, 30.10. 7:00 1260 m 8/8 8/8 - - -
Fr, 30.10. 1:00 420 m 7/8 7/8 - - -
Ortszeit Bedeckungsgrad in Achtel und Wolkenuntergrenze
Sa, 31.10. 21:00 4(6300m) 8(8400m) 8(9000m)
Sa, 31.10. 20:50 4(6300m) 8(8400m) 8(9000m)
Sa, 31.10. 20:40 1(6600m) 8(8100m) 8(9000m)
Sa, 31.10. 20:30 2(6600m) 8(8100m) 8(9000m)
Sa, 31.10. 20:20 2(6600m) 8(8100m) 8(9000m)
Sa, 31.10. 20:10 8(7800m) 8(9000m)
Sa, 31.10. 20:00 7(7800m) 8(8100m)
Sa, 31.10. 19:30 3(8400m)
Sa, 31.10. 19:00 keine Wolken
Sa, 31.10. 18:30 5(450m)
Sa, 31.10. 18:00 7(360m)
Ortszeit Luftdruck NN (hPa) Tendenz (hPa in 3 Std.)
Sa, 31.10. 19:00 1021 - 0,8
Sa, 31.10. 13:00 1023 - 1,3
Sa, 31.10. 7:00 1024 + 0,4
Sa, 31.10. 1:00 1024 + 0,6
Fr, 30.10. 19:00 1022 + 1,6
Fr, 30.10. 13:00 1019 + 0,4
Fr, 30.10. 7:00 1018 + 0,4
Fr, 30.10. 1:00 1019 - 1,4
Ortszeit Luftdruck NN (hPa) Tendenz (hPa in 3 Std.)
Sa, 31.10. 21:00 1020 - 1,4
Sa, 31.10. 20:50 1020 keine Meldung
Sa, 31.10. 20:40 1020 keine Meldung
Sa, 31.10. 20:30 1020 - 1,2
Sa, 31.10. 20:20 1020 keine Meldung
Sa, 31.10. 20:10 1020 keine Meldung
Sa, 31.10. 20:00 1020 - 1,2
Sa, 31.10. 19:30 1021 - 0,6
Sa, 31.10. 19:00 1021 - 0,8
Sa, 31.10. 18:30 1021 - 0,9
Sa, 31.10. 18:00 1021 - 1,1
Ortszeit Schneehöhe (cm)
Sa, 31.10. 19:00 0
Sa, 31.10. 13:00 0
Sa, 31.10. 7:00 0
Sa, 31.10. 1:00 0
Fr, 30.10. 19:00 0
Fr, 30.10. 13:00 0
Fr, 30.10. 7:00 0
Fr, 30.10. 1:00 0
Ortszeit Schneehöhe (cm)
Sa, 31.10. 21:00 0
Sa, 31.10. 20:50 0
Sa, 31.10. 20:40 0
Sa, 31.10. 20:30 0
Sa, 31.10. 20:20 0
Sa, 31.10. 20:10 0
Sa, 31.10. 20:00 0
Sa, 31.10. 19:30 0
Sa, 31.10. 19:00 0
Sa, 31.10. 18:30 0
Sa, 31.10. 18:00 0
Link zu dieser Seite / Seite empfehlen

Das Wetter in ...